Terminal Aerodrome Forecast
Issued by NWS

Home | Current Version | Previous Version | Text Only | Print | Product List | Glossary On
Versions: 1 2 3 4 5 6 7 8 9 10 11 12 13 14 15 16 17 18 19 20 21 22 23 24 25 26 27 28 29 30 31 32 33 34 35 36 37 38 39 40 41 42 43 44 45 46 47 48
000
FTUS41 KBUF 200536
TAFIAG
TAF
KIAG 200536Z 2006/2106 07006KT P6SM SCT050 OVC200
     FM200900 06006KT P6SM VCSH BKN050
     FM201200 04006KT 4SM -RA BR BKN025
      TEMPO 2012/2014 BKN015
     FM201500 03006KT 2SM RA BR OVC007
     FM202200 02006KT 6SM -SHRA BR OVC007
     FM210300 35006KT 6SM BR VCSH OVC050=

USA.gov is the U.S. government's official web portal to all federal, state and local government web resources and services.